Biloxi, MS

9:10 PM CDT on August 30, 2016 (GMT -0500)
Keesler Air Force Base

Weather History for KBIX - November, 2012

Change the Weather History Date:

Saturday, November 3, 2012

  Actual Average Record
Temperature  
Mean Temperature 69 °F -  
Max Temperature 80 °F 73 °F 85 °F (1950)
Min Temperature 58 °F 54 °F 28 °F (1966)
Cooling Degree Days 4    
Growing Degree Days 19 (Base 50)    
Moisture  
Dew Point 62 °F    
Average Humidity 96    
Maximum Humidity 100    
Minimum Humidity 63    
Precipitation  
Precipitation 0.00 in - - ()
Sea Level Pressure  
Sea Level Pressure 30.10 in    
Wind  
Wind Speed 1 mph (SW)    
Max Wind Speed 13 mph    
Max Gust Speed -    
Visibility 3 miles    
Events Fog    
Averages and records for this station are not official NWS values.
T = Trace of Precipitation, MM = Missing Value Source: NWS Daily Summary

Daily Weather History Graph

Daily Weather History Graph

Search for Another Location

Airport or City:

Trip Planner

Search our weather history database for the weather conditions in past years. The results will help you decide how hot, cold, wet, or windy it might be!

Date:

Astronomy

Nov. 03, 2012 Rise Set
Actual Time 7:12 AM CDT 6:06 PM CDT
Civil Twilight 6:47 AM CDT 6:30 PM CDT
Nautical Twilight 6:18 AM CDT 6:59 PM CDT
Astronomical Twilight 5:50 AM CDT 7:27 PM CDT
Moon 9:53 PM CDT (11/3) 11:09 AM CDT (11/3)
Length of Visible Light 11h 43m
Length of Day
10h 53m
Waning Gibbous, 80% of the Moon is Illuminated
Nov 3
Waning Gibbous
Nov 6
Last Quarter
Nov 13
New
Nov 20
First Quarter
Nov 28
Full

Hourly Weather History & Observations

Time (CDT) Temp. Heat Index Dew Point Humidity Pressure Visibility Wind Dir Wind Speed Gust Speed Precip Events Conditions
12:55 AM 67.6 °F - 65.5 °F 93% 30.07 in 10.0 mi WSW 4.6 mph - N/A   Clear
1:55 AM 66.9 °F - 63.9 °F 90% 30.07 in 10.0 mi Calm Calm - N/A   Clear
2:55 AM 63.7 °F - 62.8 °F 97% 30.06 in 10.0 mi Calm Calm - N/A   Clear
3:55 AM 62.4 °F - 61.9 °F 98% 30.07 in 10.0 mi Calm Calm - N/A   Clear
4:13 AM 62.6 °F - 62.6 °F 100% 30.07 in 6.0 mi Calm Calm - N/A   Clear
4:21 AM 62.6 °F - 62.6 °F 100% 30.07 in 2.5 mi Calm Calm - N/A   Clear
4:22 AM 62.6 °F - 62.6 °F 100% 30.08 in 3.0 mi Calm Calm - N/A   Clear
4:23 AM 62.6 °F - 62.6 °F 100% 30.08 in 3.0 mi Calm Calm - N/A   Clear
4:36 AM 62.6 °F - 62.6 °F 100% 30.08 in 2.5 mi Calm Calm - N/A   Clear
4:37 AM 62.6 °F - 60.8 °F 94% 30.08 in 2.0 mi Calm Calm - N/A   Clear
4:38 AM 62.6 °F - 60.8 °F 94% 30.08 in 1.8 mi Calm Calm - N/A   Clear
4:39 AM 62.6 °F - 60.8 °F 94% 30.08 in 1.2 mi Calm Calm - N/A   Clear
4:40 AM 62.6 °F - 60.8 °F 94% 30.08 in 1.0 mi Calm Calm - N/A   Clear
4:42 AM 60.8 °F - 60.8 °F 100% 30.08 in 1.0 mi Calm Calm - N/A   Clear
4:43 AM 60.8 °F - 60.8 °F 100% 30.08 in 0.8 mi Calm Calm - N/A   Clear
4:45 AM 60.8 °F - 60.8 °F 100% 30.08 in 1.0 mi Calm Calm - N/A   Clear
4:47 AM 60.8 °F - 60.8 °F 100% 30.08 in 1.0 mi Calm Calm - N/A   Clear
4:48 AM 60.8 °F - 60.8 °F 100% 30.08 in 1.2 mi Calm Calm - N/A   Clear
4:49 AM 60.8 °F - 60.8 °F 100% 30.08 in 1.5 mi Calm Calm - N/A   Clear
4:50 AM 60.8 °F - 60.8 °F 100% 30.08 in 1.8 mi Calm Calm - N/A   Clear
4:51 AM 60.8 °F - 60.8 °F 100% 30.08 in 2.5 mi Calm Calm - N/A   Clear
4:52 AM 60.8 °F - 60.8 °F 100% 30.08 in 3.0 mi Calm Calm - N/A   Clear
4:54 AM 60.8 °F - 60.8 °F 100% 30.08 in 4.0 mi Calm Calm - N/A   Clear
4:55 AM 60.6 °F - 60.4 °F 99% 30.08 in 4.0 mi Calm Calm - N/A   Clear
5:17 AM 60.8 °F - 60.8 °F 100% 30.09 in 2.5 mi Calm Calm - N/A   Clear
5:18 AM 60.8 °F - 60.8 °F 100% 30.09 in 1.8 mi Calm Calm - N/A   Clear
5:19 AM 60.8 °F - 60.8 °F 100% 30.09 in 1.2 mi Calm Calm - N/A   Clear
5:20 AM 60.8 °F - 60.8 °F 100% 30.09 in 1.0 mi Calm Calm - N/A   Clear
5:21 AM 60.8 °F - 60.8 °F 100% 30.09 in 0.8 mi Calm Calm - N/A   Clear
5:23 AM 62.6 °F - 60.8 °F 94% 30.09 in 0.8 mi Calm Calm - N/A   Clear
5:24 AM 62.6 °F - 60.8 °F 94% 30.09 in 0.8 mi Calm Calm - N/A   Clear
5:26 AM 62.6 °F - 60.8 °F 94% 30.09 in 0.5 mi Calm Calm - N/A Fog Fog
5:27 AM 62.6 °F - 62.6 °F 100% 30.09 in 0.8 mi Calm Calm - N/A   Clear
5:30 AM 62.6 °F - 62.6 °F 100% 30.09 in 1.0 mi Calm Calm - N/A   Clear
5:31 AM 62.6 °F - 62.6 °F 100% 30.09 in 1.2 mi Calm Calm - N/A   Clear
5:32 AM 62.6 °F - 62.6 °F 100% 30.09 in 1.2 mi Calm Calm - N/A   Clear
5:33 AM 62.6 °F - 62.6 °F 100% 30.09 in 1.5 mi Calm Calm - N/A   Clear
5:35 AM 62.6 °F - 60.8 °F 94% 30.09 in 2.0 mi Calm Calm - N/A   Clear
5:36 AM 62.6 °F - 60.8 °F 94% 30.09 in 2.5 mi Calm Calm - N/A   Clear
5:37 AM 60.8 °F - 60.8 °F 100% 30.09 in 3.0 mi Calm Calm - N/A   Clear
5:47 AM 62.6 °F - 62.6 °F 100% 30.10 in 2.5 mi Calm Calm - N/A   Clear
5:53 AM 62.6 °F - 62.6 °F 100% 30.10 in 2.5 mi Calm Calm - N/A   Clear
5:55 AM 62.4 °F - 62.4 °F 100% 30.10 in 2.5 mi Calm Calm - N/A   Clear
5:56 AM 62.6 °F - 62.6 °F 100% 30.10 in 3.0 mi Calm Calm - N/A   Clear
5:58 AM 62.6 °F - 62.6 °F 100% 30.10 in 2.5 mi Calm Calm - N/A   Clear
5:59 AM 62.6 °F - 62.6 °F 100% 30.10 in 2.0 mi Calm Calm - N/A   Clear
6:00 AM 62.6 °F - 62.6 °F 100% 30.10 in 1.5 mi Calm Calm - N/A   Clear
6:01 AM 62.6 °F - 62.6 °F 100% 30.10 in 1.2 mi Calm Calm - N/A   Clear
6:03 AM 60.8 °F - 60.8 °F 100% 30.10 in 0.8 mi Calm Calm - N/A   Clear
6:05 AM 60.8 °F - 60.8 °F 100% 30.10 in 0.5 mi Calm Calm - N/A Fog Fog
6:06 AM 60.8 °F - 60.8 °F 100% 30.10 in 0.5 mi Calm Calm - N/A Fog Fog
6:07 AM 60.8 °F - 60.8 °F 100% 30.10 in 0.5 mi Calm Calm - N/A Fog Fog
6:10 AM 60.8 °F - 60.8 °F 100% 30.10 in 0.2 mi Calm Calm - N/A Fog Fog
6:26 AM 60.8 °F - 59.0 °F 94% 30.11 in 0.5 mi Calm Calm - N/A Fog Fog
6:27 AM 60.8 °F - 59.0 °F 94% 30.11 in 0.5 mi Calm Calm - N/A Fog Fog
6:28 AM 59.0 °F - 59.0 °F 100% 30.11 in 0.5 mi Calm Calm - N/A Fog Fog
6:29 AM 59.0 °F - 59.0 °F 100% 30.11 in 0.5 mi Calm Calm - N/A Fog Fog
6:31 AM 59.0 °F - 59.0 °F 100% 30.11 in 0.8 mi Calm Calm - N/A   Clear
6:32 AM 59.0 °F - 59.0 °F 100% 30.11 in 1.0 mi Calm Calm - N/A   Clear
6:34 AM 59.0 °F - 59.0 °F 100% 30.11 in 1.5 mi Calm Calm - N/A   Clear
6:35 AM 60.8 °F - 59.0 °F 94% 30.11 in 1.8 mi Calm Calm - N/A   Clear
6:36 AM 60.8 °F - 60.8 °F 100% 30.11 in 2.0 mi Calm Calm - N/A   Clear
6:38 AM 60.8 °F - 60.8 °F 100% 30.11 in 1.8 mi Calm Calm - N/A   Clear
6:39 AM 60.8 °F - 60.8 °F 100% 30.11 in 1.5 mi Calm Calm - N/A   Clear
6:40 AM 60.8 °F - 60.8 °F 100% 30.11 in 1.2 mi Calm Calm - N/A   Clear
6:42 AM 60.8 °F - 60.8 °F 100% 30.11 in 0.8 mi Calm Calm - N/A   Clear
6:44 AM 60.8 °F - 60.8 °F 100% 30.12 in 0.5 mi Calm Calm - N/A Fog Fog
6:47 AM 59.0 °F - 59.0 °F 100% 30.12 in 0.2 mi Calm Calm - N/A Fog Fog
6:48 AM 59.0 °F - 59.0 °F 100% 30.12 in 0.2 mi Calm Calm - N/A Fog Fog
6:55 AM 58.6 °F - 58.5 °F 99% 30.12 in 0.2 mi SW 3.5 mph - N/A Fog Fog
6:58 AM 59.0 °F - 59.0 °F 100% 30.12 in 0.2 mi WSW 3.5 mph - N/A Fog Fog
6:59 AM 59.0 °F - 59.0 °F 100% 30.12 in 0.5 mi Calm Calm - N/A Fog Fog
7:00 AM 59.0 °F - 59.0 °F 100% 30.12 in 0.5 mi Calm Calm - N/A Fog Fog
7:02 AM 59.0 °F - 59.0 °F 100% 30.12 in 0.5 mi Calm Calm - N/A Fog Fog
7:03 AM 59.0 °F - 59.0 °F 100% 30.12 in 0.8 mi Calm Calm - N/A   Clear
7:06 AM 59.0 °F - 59.0 °F 100% 30.12 in 1.0 mi Calm Calm - N/A   Clear
7:10 AM 59.0 °F - 59.0 °F 100% 30.12 in 0.8 mi Calm Calm - N/A   Clear
7:11 AM 59.0 °F - 59.0 °F 100% 30.12 in 0.5 mi Calm Calm - N/A Fog Fog
7:12 AM 59.0 °F - 59.0 °F 100% 30.12 in 0.2 mi Calm Calm - N/A Fog Fog
7:13 AM 59.0 °F - 59.0 °F 100% 30.12 in 0.2 mi Calm Calm - N/A Fog Fog
7:27 AM 59.0 °F - 59.0 °F 100% 30.12 in 0.2 mi Calm Calm - N/A Fog Fog
7:38 AM 60.8 °F - 60.8 °F 100% 30.12 in 0.2 mi Calm Calm - N/A Fog Fog
7:39 AM 60.8 °F - 60.8 °F 100% 30.12 in 0.2 mi Calm Calm - N/A Fog Fog
7:40 AM 60.8 °F - 60.8 °F 100% 30.12 in 0.2 mi Calm Calm - N/A Fog Fog
7:50 AM 60.8 °F - 60.8 °F 100% 30.13 in 0.2 mi Calm Calm - N/A Fog Fog
7:53 AM 60.8 °F - 60.8 °F 100% 30.13 in 0.2 mi Calm Calm - N/A Fog Fog
7:54 AM 60.8 °F - 60.8 °F 100% 30.13 in 0.2 mi Calm Calm - N/A Fog Fog
7:55 AM 61.5 °F - 61.5 °F 100% 30.13 in 0.2 mi Calm Calm - N/A Fog Fog
7:56 AM 60.8 °F - 60.8 °F 100% 30.13 in 0.5 mi Calm Calm - N/A Fog Fog
7:58 AM 62.6 °F - 62.6 °F 100% 30.13 in 0.8 mi Calm Calm - N/A   Clear
8:00 AM 62.6 °F - 62.6 °F 100% 30.13 in 1.0 mi Calm Calm - N/A   Clear
8:02 AM 62.6 °F - 62.6 °F 100% 30.13 in 1.8 mi Calm Calm - N/A   Clear
8:03 AM 62.6 °F - 62.6 °F 100% 30.13 in 2.5 mi Calm Calm - N/A   Clear
8:04 AM 62.6 °F - 62.6 °F 100% 30.13 in 3.0 mi Calm Calm - N/A   Clear
8:55 AM 66.9 °F - 64.8 °F 93% 30.14 in 9.0 mi Calm Calm - N/A   Clear
9:55 AM 71.6 °F - 65.8 °F 82% 30.15 in 10.0 mi Calm Calm - N/A   Clear
10:55 AM 76.5 °F - 66.9 °F 72% 30.15 in 10.0 mi West 3.5 mph - N/A   Clear
11:55 AM 80.1 °F 82.2 °F 66.6 °F 63% 30.14 in 10.0 mi Variable 4.6 mph - N/A   Clear
12:55 PM 78.6 °F - 67.1 °F 68% 30.12 in 10.0 mi SW 9.2 mph - N/A   Clear
1:55 PM 77.7 °F - 67.5 °F 71% 30.09 in 10.0 mi SW 11.5 mph - N/A   Clear
2:55 PM 76.8 °F - 66.9 °F 71% 30.08 in 10.0 mi SW 11.5 mph - N/A   Clear
3:55 PM 76.8 °F - 66.7 °F 71% 30.07 in 10.0 mi SSW 10.4 mph - N/A   Clear
4:55 PM 74.7 °F - 67.6 °F 79% 30.06 in 10.0 mi SSW 10.4 mph - N/A   Clear
5:55 PM 71.1 °F - 67.8 °F 89% 30.06 in 10.0 mi SSW 8.1 mph - N/A   Clear
6:55 PM 68.7 °F - 66.6 °F 93% 30.07 in 10.0 mi SW 4.6 mph - N/A   Clear
7:55 PM 69.8 °F - 66.2 °F 88% 30.09 in 10.0 mi SW 12.7 mph - N/A   Clear
8:55 PM 69.3 °F - 65.7 °F 88% 30.10 in 10.0 mi SW 10.4 mph - N/A   Clear
9:55 PM 68.9 °F - 67.1 °F 94% 30.09 in 10.0 mi SW 10.4 mph - N/A   Clear
10:55 PM 68.7 °F - 67.3 °F 95% 30.10 in 10.0 mi SW 6.9 mph - N/A   Clear
11:55 PM 69.4 °F - 67.6 °F 94% 30.09 in 10.0 mi Variable 5.8 mph - N/A   Clear